Time;durP1;ratioP1;P1;durP2;ratioP2;P2;SDS_P1;SDS_P2;PMS_P1;PMS_P2;Temp;Humidity;BMP_temperature;BMP_pressure;BME280_temperature;BME280_humidity;BME280_pressure;Samples;Min_cycle;Max_cycle;Signal;HPM_P1;HPM_P2
2021/03/13 00:01:15;;;;;;;5.00;3.30;;;;;;;6.80;69.77;98615.84;5013326;28;20038;-62
2021/03/13 00:03:40;;;;;;;8.00;3.13;;;;;;;6.80;69.58;98618.44;5012051;28;20413;-61
2021/03/13 00:06:10;;;;;;;7.07;3.40;;;;;;;6.80;69.67;98613.28;5011816;28;20026;-62
2021/03/13 00:08:39;;;;;;;6.93;3.45;;;;;;;6.79;69.77;98617.59;5013654;28;20555;-62
2021/03/13 00:11:09;;;;;;;7.45;3.70;;;;;;;6.79;70.04;98603.81;5014952;28;20489;-62
2021/03/13 00:13:36;;;;;;;7.47;3.78;;;;;;;6.78;69.40;98596.94;5015450;28;20042;-62
2021/03/13 00:16:05;;;;;;;6.00;2.92;;;;;;;6.75;70.16;98589.22;5016664;28;20489;-61
2021/03/13 00:18:32;;;;;;;7.47;3.75;;;;;;;6.75;70.11;98592.66;5016272;28;20117;-61
2021/03/13 00:21:04;;;;;;;6.07;3.47;;;;;;;6.74;69.73;98580.63;5015169;28;20409;-62
2021/03/13 00:23:29;;;;;;;8.15;3.53;;;;;;;6.74;70.08;98570.31;5016063;28;20038;-62
2021/03/13 00:25:55;;;;;;;6.57;3.08;;;;;;;6.75;70.08;98573.78;5014737;28;20034;-61
2021/03/13 00:28:24;;;;;;;6.15;3.22;;;;;;;6.74;69.65;98575.47;5015272;28;20073;-62
2021/03/13 00:30:55;;;;;;;11.88;4.43;;;;;;;6.74;69.53;98561.75;5016014;28;20061;-62
2021/03/13 00:33:24;;;;;;;7.07;3.92;;;;;;;6.73;70.09;98544.56;5016290;28;20041;-62
2021/03/13 00:35:56;;;;;;;8.13;3.85;;;;;;;6.73;69.79;98548.00;5016002;28;20485;-62
2021/03/13 00:38:23;;;;;;;7.75;3.72;;;;;;;6.73;69.76;98536.84;4998258;28;20045;-62
2021/03/13 00:40:52;;;;;;;5.80;4.07;;;;;;;6.70;69.87;98522.22;5014883;28;20062;-62
2021/03/13 00:43:21;;;;;;;8.65;4.00;;;;;;;6.68;70.51;98532.53;5014722;28;20038;-62
2021/03/13 00:45:47;;;;;;;7.78;3.95;;;;;;;6.72;70.09;98522.25;5014427;28;20400;-62
2021/03/13 00:48:13;;;;;;;7.40;3.78;;;;;;;6.69;70.14;98521.38;5015844;28;20045;-62
2021/03/13 00:50:44;;;;;;;5.07;3.63;;;;;;;6.68;70.44;98508.50;5015895;28;20366;-62
2021/03/13 00:53:15;;;;;;;7.80;3.45;;;;;;;6.69;69.99;98505.06;5014497;28;20030;-62
2021/03/13 00:55:47;;;;;;;7.82;3.42;;;;;;;6.70;70.20;98506.78;5014378;28;20128;-62
2021/03/13 00:58:15;;;;;;;10.75;4.60;;;;;;;6.70;70.03;98494.78;5015823;28;20049;-62
2021/03/13 01:00:41;;;;;;;9.90;4.25;;;;;;;6.69;69.95;98500.78;5015637;28;20460;-62
2021/03/13 01:03:07;;;;;;;8.40;4.90;;;;;;;6.70;70.31;98491.31;5015566;28;20049;-62
2021/03/13 01:05:36;;;;;;;7.72;3.35;;;;;;;6.70;70.22;98494.78;5015141;28;20037;-62
2021/03/13 01:08:06;;;;;;;8.52;3.33;;;;;;;6.67;70.35;98487.03;5015808;28;20043;-62
2021/03/13 01:10:42;;;;;;;8.40;3.63;;;;;;;6.69;70.24;98487.91;5015657;28;20041;-62
2021/03/13 01:13:13;;;;;;;9.45;3.65;;;;;;;6.69;70.06;98480.19;5015422;28;20470;-62
2021/03/13 01:15:39;;;;;;;8.85;3.95;;;;;;;6.70;70.22;98471.59;4997751;28;20033;-62
2021/03/13 01:18:05;;;;;;;10.60;4.15;;;;;;;6.69;70.72;98463.88;5014015;28;20041;-62
2021/03/13 01:20:37;;;;;;;11.77;4.03;;;;;;;6.68;70.51;98462.16;5013745;28;20072;-62
2021/03/13 01:23:08;;;;;;;11.60;4.13;;;;;;;6.68;70.48;98457.00;5015079;28;20512;-62
2021/03/13 01:25:40;;;;;;;6.70;3.15;;;;;;;6.67;70.51;98456.13;4997705;28;20076;-62
2021/03/13 01:28:09;;;;;;;7.80;3.53;;;;;;;6.67;70.24;98445.81;5014003;28;20034;-62
2021/03/13 01:30:41;;;;;;;6.82;3.40;;;;;;;6.67;70.07;98440.69;5014962;28;20069;-62
2021/03/13 01:33:12;;;;;;;8.93;3.42;;;;;;;6.68;70.57;98442.41;5014367;28;20065;-62
2021/03/13 01:35:41;;;;;;;6.22;2.75;;;;;;;6.70;70.12;98426.94;5014821;28;20057;-62
2021/03/13 01:38:12;;;;;;;7.15;3.30;;;;;;;6.69;70.50;98404.66;5014041;28;20033;-62
2021/03/13 01:40:46;;;;;;;6.97;2.83;;;;;;;6.67;70.46;98403.78;5015115;28;20551;-62
2021/03/13 01:43:11;;;;;;;8.65;3.75;;;;;;;6.66;70.17;98384.88;4997386;28;20040;-62
2021/03/13 01:45:45;;;;;;;10.90;3.17;;;;;;;6.66;70.05;98391.75;5014925;28;20380;-62
2021/03/13 01:48:13;;;;;;;8.10;3.10;;;;;;;6.66;70.62;98372.00;5014818;28;20033;-62
2021/03/13 01:50:39;;;;;;;9.73;3.75;;;;;;;6.66;70.42;98384.03;4996559;28;20033;-62
2021/03/13 01:53:10;;;;;;;5.32;2.42;;;;;;;6.67;70.42;98370.31;5014644;28;20386;-62
2021/03/13 01:55:39;;;;;;;8.73;2.65;;;;;;;6.66;70.22;98361.72;5014674;28;20500;-62
2021/03/13 01:58:10;;;;;;;8.30;2.90;;;;;;;6.65;70.26;98341.97;5014589;28;20042;-62
2021/03/13 02:00:35;;;;;;;5.00;2.63;;;;;;;6.65;70.77;98338.56;5014659;28;20038;-62
2021/03/13 02:03:07;;;;;;;9.30;3.00;;;;;;;6.64;70.53;98335.09;5012731;28;20158;-62
2021/03/13 02:05:43;;;;;;;7.35;2.83;;;;;;;6.65;70.54;98330.84;5012959;28;20045;-62
2021/03/13 02:08:23;;;;;;;7.95;2.47;;;;;;;6.65;70.72;98320.53;5013211;28;20040;-62
2021/03/13 02:11:06;;;;;;;7.57;2.70;;;;;;;6.64;70.44;98317.09;5013040;28;20038;-62
2021/03/13 02:13:52;;;;;;;5.68;2.88;;;;;;;6.65;70.13;98308.50;5013083;28;20389;-62
2021/03/13 02:16:39;;;;;;;9.95;3.17;;;;;;;6.67;70.50;98305.97;5012886;28;20064;-62
2021/03/13 02:19:26;;;;;;;6.13;2.72;;;;;;;6.67;70.57;98296.50;5014471;28;20042;-62
2021/03/13 02:22:06;;;;;;;4.05;2.17;;;;;;;6.65;70.89;98290.47;5014473;28;20128;-62
2021/03/13 02:24:50;;;;;;;8.48;2.63;;;;;;;6.65;70.90;98290.47;4996717;28;20034;-62
2021/03/13 02:27:26;;;;;;;7.78;2.30;;;;;;;6.66;70.79;98283.63;5013166;28;20034;-62
2021/03/13 02:30:00;;;;;;;5.65;2.30;;;;;;;6.65;70.75;98263.91;5013934;28;20084;-62
2021/03/13 02:32:56;;;;;;;5.90;2.53;;;;;;;6.64;70.99;98257.03;5013190;28;20034;-62
2021/03/13 02:35:41;;;;;;;6.22;2.70;;;;;;;6.64;71.12;98239.84;5013463;28;20509;-62
2021/03/13 02:38:17;;;;;;;4.65;2.33;;;;;;;6.66;70.92;98219.28;5013859;28;20026;-62
2021/03/13 02:40:54;;;;;;;4.32;2.38;;;;;;;6.65;70.72;98233.84;5012831;28;20045;-62
2021/03/13 02:43:24;;;;;;;6.43;2.85;;;;;;;6.66;70.47;98227.00;5012883;28;20069;-62
2021/03/13 02:45:58;;;;;;;4.15;2.20;;;;;;;6.67;70.76;98213.28;5013552;28;20042;-62
2021/03/13 02:48:29;;;;;;;7.65;2.78;;;;;;;6.67;71.24;98210.69;5014134;28;20037;-62
2021/03/13 02:51:03;;;;;;;6.78;2.78;;;;;;;6.66;71.21;98214.13;5014076;28;20575;-62
2021/03/13 02:53:30;;;;;;;5.63;2.53;;;;;;;6.67;70.70;98200.41;5012668;28;20041;-62
2021/03/13 02:55:59;;;;;;;8.30;2.70;;;;;;;6.67;71.18;98201.25;5013259;28;20035;-62
2021/03/13 02:58:30;;;;;;;6.60;2.80;;;;;;;6.67;71.06;98190.94;5012504;28;20488;-62
2021/03/13 03:00:56;;;;;;;6.75;2.28;;;;;;;6.69;70.97;98188.41;5013700;28;20397;-62
2021/03/13 03:03:26;;;;;;;10.40;3.10;;;;;;;6.68;70.84;98174.66;5012404;28;20045;-62
2021/03/13 03:05:55;;;;;;;10.40;2.83;;;;;;;6.68;71.14;98169.50;5012559;28;20038;-62
2021/03/13 03:08:25;;;;;;;7.35;2.80;;;;;;;6.69;71.04;98162.66;5012299;28;20033;-62
2021/03/13 03:10:54;;;;;;;8.52;2.60;;;;;;;6.69;71.43;98148.06;5013301;28;20041;-63
2021/03/13 03:13:20;;;;;;;5.60;2.58;;;;;;;6.70;70.82;98141.16;5013308;28;20030;-62
2021/03/13 03:15:49;;;;;;;7.32;2.60;;;;;;;6.70;70.90;98130.88;5013539;28;20033;-62
2021/03/13 03:18:25;;;;;;;8.77;3.45;;;;;;;6.72;71.32;98136.03;5012306;28;20045;-62
2021/03/13 03:20:52;;;;;;;9.65;2.67;;;;;;;6.72;70.93;98111.13;5013661;28;20037;-62
2021/03/13 03:23:21;;;;;;;8.50;3.15;;;;;;;6.73;70.79;98088.84;5012084;28;20034;-63
2021/03/13 03:25:56;;;;;;;15.13;2.88;;;;;;;6.71;70.89;98101.69;5012590;28;20033;-62
2021/03/13 03:28:24;;;;;;;7.72;3.22;;;;;;;6.72;71.29;98087.97;5013413;28;20025;-62
2021/03/13 03:30:56;;;;;;;8.82;3.25;;;;;;;6.70;71.59;98100.84;5013480;28;20042;-62
2021/03/13 03:33:26;;;;;;;5.80;2.42;;;;;;;6.72;70.98;98090.53;4996020;28;20128;-62
2021/03/13 03:35:51;;;;;;;5.43;3.10;;;;;;;6.73;71.25;98081.13;5011820;28;20042;-62
2021/03/13 03:38:23;;;;;;;10.57;4.20;;;;;;;6.73;71.23;98063.09;5011910;28;20041;-62
2021/03/13 03:40:57;;;;;;;14.38;3.65;;;;;;;6.73;71.22;98065.69;5013781;28;20088;-62
2021/03/13 03:43:31;;;;;;;10.70;2.17;;;;;;;6.71;70.80;98063.09;5013492;28;20038;-62
2021/03/13 03:45:59;;;;;;;6.37;2.33;;;;;;;6.73;71.39;98043.34;5017362;28;20062;-62
2021/03/13 03:48:33;;;;;;;7.38;2.95;;;;;;;6.73;70.93;98045.09;5017255;28;20280;-62
2021/03/13 03:51:08;;;;;;;8.43;2.60;;;;;;;6.73;71.53;98030.47;5016283;28;20040;-62
2021/03/13 03:53:43;;;;;;;7.72;2.63;;;;;;;6.72;71.02;98015.88;5017126;28;20113;-62
2021/03/13 03:56:21;;;;;;;6.75;2.95;;;;;;;6.72;71.24;98017.63;5015417;28;20037;-62
2021/03/13 03:58:54;;;;;;;7.60;3.30;;;;;;;6.71;70.94;98019.31;5016282;28;20569;-62
2021/03/13 04:01:26;;;;;;;7.50;2.72;;;;;;;6.72;71.00;98036.47;5016086;28;20062;-62
2021/03/13 04:03:57;;;;;;;5.40;2.40;;;;;;;6.72;71.14;98010.72;5015629;28;20137;-62
2021/03/13 04:06:28;;;;;;;8.88;2.75;;;;;;;6.72;71.01;97979.84;5015269;28;20452;-62
2021/03/13 04:08:57;;;;;;;5.88;2.67;;;;;;;6.73;71.68;97985.88;5015138;28;20401;-63
2021/03/13 04:11:24;;;;;;;3.80;2.00;;;;;;;6.73;71.69;97985.88;5015057;28;20038;-63
2021/03/13 04:13:56;;;;;;;6.57;2.72;;;;;;;6.74;71.43;97992.72;5015365;28;20034;-62
2021/03/13 04:16:22;;;;;;;5.70;2.88;;;;;;;6.75;71.67;97981.56;5016315;28;20494;-62
2021/03/13 04:18:54;;;;;;;9.35;2.45;;;;;;;6.74;71.24;97970.41;5016597;28;20092;-62
2021/03/13 04:21:23;;;;;;;13.77;3.78;;;;;;;6.76;71.14;97967.84;5014981;28;20088;-62
2021/03/13 04:23:55;;;;;;;6.97;2.25;;;;;;;6.75;71.49;97961.81;5016154;28;20037;-62
2021/03/13 04:26:33;;;;;;;9.20;2.70;;;;;;;6.75;71.75;97973.84;5015390;28;20087;-62
2021/03/13 04:29:01;;;;;;;5.72;2.45;;;;;;;6.76;71.68;97954.97;5016428;28;20033;-62
2021/03/13 04:31:37;;;;;;;8.15;2.10;;;;;;;6.77;71.22;97948.97;5015039;28;20030;-62
2021/03/13 04:34:05;;;;;;;11.57;3.08;;;;;;;6.77;71.49;97965.25;5014964;28;20042;-62
2021/03/13 04:36:33;;;;;;;9.82;3.13;;;;;;;6.76;71.50;97922.34;5015608;28;20131;-63
2021/03/13 04:39:09;;;;;;;7.22;2.72;;;;;;;6.79;71.65;97918.91;5015142;28;20077;-62
2021/03/13 04:41:40;;;;;;;7.03;2.47;;;;;;;6.78;71.28;97937.78;5016246;28;20071;-63
2021/03/13 04:44:08;;;;;;;7.75;2.58;;;;;;;6.80;71.58;97920.59;5016173;28;20037;-62
2021/03/13 04:46:43;;;;;;;5.57;2.63;;;;;;;6.80;72.06;97915.47;5014385;28;20121;-62
2021/03/13 04:49:12;;;;;;;7.60;2.40;;;;;;;6.81;71.70;97928.34;5015672;28;20041;-63
2021/03/13 04:51:44;;;;;;;4.53;2.85;;;;;;;6.81;71.15;97922.31;5015645;28;20037;-61
2021/03/13 04:54:13;;;;;;;8.98;2.72;;;;;;;6.82;71.77;97918.88;5015665;28;20038;-62
2021/03/13 04:56:45;;;;;;;8.55;2.17;;;;;;;6.81;71.62;97894.00;5014546;28;20081;-62
2021/03/13 04:59:21;;;;;;;7.65;2.47;;;;;;;6.80;71.24;97906.03;5014549;28;20205;-62
2021/03/13 05:01:53;;;;;;;6.32;2.03;;;;;;;6.81;72.03;97875.97;5014996;28;20133;-63
2021/03/13 05:04:23;;;;;;;8.93;2.15;;;;;;;6.80;71.87;97864.84;5015719;28;20505;-62
2021/03/13 05:06:55;;;;;;;10.73;2.72;;;;;;;6.79;71.53;97867.41;5013599;28;20468;-62
2021/03/13 05:09:26;;;;;;;8.32;2.65;;;;;;;6.81;71.96;97860.53;5014304;28;20033;-62
2021/03/13 05:11:57;;;;;;;8.27;2.95;;;;;;;6.81;71.94;97863.09;5015417;28;20038;-62
2021/03/13 05:14:23;;;;;;;5.60;2.45;;;;;;;6.81;71.71;97851.09;5015382;28;20069;-62
2021/03/13 05:16:54;;;;;;;11.35;3.55;;;;;;;6.81;71.86;97845.06;5014408;28;20068;-62
2021/03/13 05:19:22;;;;;;;4.45;2.88;;;;;;;6.81;72.09;97845.06;5015483;28;20083;-63
2021/03/13 05:21:50;;;;;;;11.18;2.47;;;;;;;6.81;71.52;97845.06;5013952;28;20037;-63
2021/03/13 05:24:21;;;;;;;8.45;2.55;;;;;;;6.82;71.84;97852.81;5015124;28;20429;-62
2021/03/13 05:26:55;;;;;;;4.95;2.30;;;;;;;6.84;71.94;97842.50;5015080;28;20092;-62
2021/03/13 05:29:26;;;;;;;4.90;2.33;;;;;;;6.82;71.63;97857.09;5015133;28;20470;-63
2021/03/13 05:31:57;;;;;;;11.65;2.30;;;;;;;6.83;71.62;97826.22;5014974;28;20034;-62
2021/03/13 05:34:30;;;;;;;9.60;3.38;;;;;;;6.83;71.66;97831.34;5013928;28;20038;-62
2021/03/13 05:37:01;;;;;;;5.57;2.60;;;;;;;6.82;71.81;97819.34;5015084;28;20033;-62
2021/03/13 05:39:32;;;;;;;4.20;2.03;;;;;;;6.80;72.47;97815.91;5013489;28;20046;-62
2021/03/13 05:42:04;;;;;;;10.40;2.42;;;;;;;6.82;71.75;97803.91;5014186;28;20129;-62
2021/03/13 05:44:33;;;;;;;9.07;2.35;;;;;;;6.82;71.74;97790.16;4997553;28;20081;-62
2021/03/13 05:47:04;;;;;;;8.52;2.45;;;;;;;6.81;72.14;97799.59;5013567;28;20037;-62
2021/03/13 05:49:35;;;;;;;8.48;2.92;;;;;;;6.81;71.99;97791.88;5014850;28;20036;-62
2021/03/13 05:52:04;;;;;;;5.97;2.95;;;;;;;6.81;72.54;97788.44;5014472;28;20042;-63
2021/03/13 05:54:31;;;;;;;3.70;2.05;;;;;;;6.82;71.86;97769.56;5015059;28;20034;-62
2021/03/13 05:56:58;;;;;;;7.65;3.28;;;;;;;6.81;71.91;97776.44;5014541;28;20041;-63
2021/03/13 05:59:25;;;;;;;5.85;2.30;;;;;;;6.83;72.34;97766.13;4997014;28;20077;-63
2021/03/13 06:01:52;;;;;;;6.10;2.25;;;;;;;6.81;71.95;97779.00;5014356;28;20131;-62
2021/03/13 06:04:23;;;;;;;7.88;2.30;;;;;;;6.82;72.27;97767.84;5012814;28;20033;-62
2021/03/13 06:06:54;;;;;;;5.53;2.10;;;;;;;6.82;72.20;97767.84;5012362;28;20513;-62
2021/03/13 06:09:25;;;;;;;9.07;2.67;;;;;;;6.83;72.20;97789.28;5014234;28;20284;-62
2021/03/13 06:11:52;;;;;;;5.22;2.35;;;;;;;6.83;72.18;97766.13;5012979;28;20073;-62
2021/03/13 06:14:23;;;;;;;7.00;2.10;;;;;;;6.82;71.92;97766.97;5014355;28;20084;-62
2021/03/13 06:16:52;;;;;;;6.88;2.28;;;;;;;6.83;72.70;97768.69;5014303;28;20038;-62
2021/03/13 06:19:23;;;;;;;5.95;2.30;;;;;;;6.82;72.29;97767.84;5014221;28;20038;-62
2021/03/13 06:21:52;;;;;;;4.85;2.30;;;;;;;6.83;72.24;97766.13;5014222;28;20116;-62
2021/03/13 06:24:31;;;;;;;5.10;2.35;;;;;;;6.83;72.08;97753.25;5012851;28;20040;-62
2021/03/13 06:27:01;;;;;;;3.97;2.60;;;;;;;6.82;72.24;97772.13;5013037;28;20428;-63
2021/03/13 06:29:33;;;;;;;3.72;1.70;;;;;;;6.82;72.41;97766.97;5012916;28;20038;-63
2021/03/13 06:32:13;;;;;;;5.50;2.17;;;;;;;6.83;71.83;97760.97;5012975;28;20033;-62
2021/03/13 06:34:47;;;;;;;6.13;2.38;;;;;;;6.84;72.23;97772.97;4996618;28;20033;-62
2021/03/13 06:37:27;;;;;;;8.07;3.08;;;;;;;6.83;72.60;97776.41;4996531;28;20046;-62
2021/03/13 06:39:54;;;;;;;6.40;2.00;;;;;;;6.84;72.46;97783.28;5012841;28;20049;-62
2021/03/13 06:42:24;;;;;;;3.45;1.80;;;;;;;6.83;72.43;97808.19;5012736;28;20060;-62
2021/03/13 06:45:01;;;;;;;4.50;2.40;;;;;;;6.84;72.40;97825.34;5013837;28;20449;-62
2021/03/13 06:47:41;;;;;;;8.15;2.28;;;;;;;6.84;72.15;97886.28;5012978;28;20065;-62
2021/03/13 06:50:18;;;;;;;3.92;2.13;;;;;;;6.81;72.36;97896.56;5012642;28;20129;-62
2021/03/13 06:53:04;;;;;;;4.57;1.77;;;;;;;6.78;72.59;97888.84;5013147;28;20045;-63
2021/03/13 06:55:35;;;;;;;2.03;1.60;;;;;;;6.71;72.26;97875.16;5014001;28;20034;-62
2021/03/13 06:58:11;;;;;;;5.25;2.10;;;;;;;6.66;72.95;97872.59;5012744;28;20033;-62
2021/03/13 07:00:44;;;;;;;5.50;2.30;;;;;;;6.65;72.50;97858.00;5012543;28;20113;-63
2021/03/13 07:03:16;;;;;;;6.55;1.73;;;;;;;6.63;72.60;97833.16;5012355;28;20061;-62
2021/03/13 07:05:46;;;;;;;5.68;1.92;;;;;;;6.61;72.71;97817.72;5013963;28;20034;-62
2021/03/13 07:08:28;;;;;;;4.60;1.83;;;;;;;6.59;72.83;97826.28;5012424;28;20088;-62
2021/03/13 07:11:18;;;;;;;4.07;1.70;;;;;;;6.56;72.73;97827.16;5012311;28;20042;-62
2021/03/13 07:13:53;;;;;;;2.67;1.85;;;;;;;6.56;72.50;97824.59;5012987;28;20046;-62
2021/03/13 07:16:26;;;;;;;3.97;2.15;;;;;;;6.53;72.88;97825.47;5013467;28;20045;-62
2021/03/13 07:19:09;;;;;;;2.50;1.55;;;;;;;6.53;72.22;97820.31;5015026;28;20124;-62
2021/03/13 07:21:39;;;;;;;2.33;1.58;;;;;;;6.51;72.76;97823.75;5017033;28;20038;-63
2021/03/13 07:24:16;;;;;;;2.65;1.65;;;;;;;6.50;72.67;97819.44;5016266;28;20060;-62
2021/03/13 07:26:45;;;;;;;4.10;1.60;;;;;;;6.51;72.40;97834.91;5016334;28;20091;-62
2021/03/13 07:29:15;;;;;;;4.97;2.20;;;;;;;6.51;72.74;97829.75;5016957;28;20049;-62
2021/03/13 07:31:49;;;;;;;1.95;1.67;;;;;;;6.50;72.27;97828.03;5017413;28;20038;-62
2021/03/13 07:34:23;;;;;;;;;;;;;;;6.50;72.17;97820.31;5017725;28;20065;-63
2021/03/13 07:36:54;;;;;;;;;;;;;;;6.51;72.82;97808.31;5016219;28;20317;-62
2021/03/13 07:39:33;;;;;;;2.03;1.45;;;;;;;6.50;72.92;97814.31;4999654;28;19917;-63
2021/03/13 07:42:05;;;;;;;2.40;1.77;;;;;;;6.50;72.24;97815.19;5000034;28;20044;-62
2021/03/13 07:44:32;;;;;;;3.10;1.70;;;;;;;6.52;72.47;97836.63;4999547;28;20038;-62
2021/03/13 07:47:01;;;;;;;2.63;1.90;;;;;;;6.53;72.70;97845.19;5015500;28;20057;-63
2021/03/13 07:49:39;;;;;;;3.75;1.50;;;;;;;6.52;72.40;97840.91;5015840;28;20038;-63
2021/03/13 07:52:17;;;;;;;5.05;2.15;;;;;;;6.53;72.29;97840.91;5015474;28;20441;-63
2021/03/13 07:54:47;;;;;;;2.30;1.92;;;;;;;6.52;72.65;97825.44;5015488;28;20073;-63
2021/03/13 07:57:15;;;;;;;5.70;1.77;;;;;;;6.52;72.32;97839.19;5015299;28;20034;-63
2021/03/13 07:59:48;;;;;;;4.50;2.08;;;;;;;6.52;72.54;97852.06;5015898;28;20040;-62
2021/03/13 08:02:32;;;;;;;4.78;2.38;;;;;;;6.51;72.38;97862.34;5017057;28;20056;-63
2021/03/13 08:05:09;;;;;;;4.88;1.85;;;;;;;6.53;72.42;97869.22;5015414;28;20041;-62
2021/03/13 08:07:54;;;;;;;5.60;2.08;;;;;;;6.52;72.57;97851.19;5016576;28;20034;-62
2021/03/13 08:10:38;;;;;;;9.05;2.78;;;;;;;6.54;72.85;97857.19;4999074;28;20033;-62
2021/03/13 08:13:11;;;;;;;5.85;2.47;;;;;;;6.53;72.87;97848.63;5015419;28;20034;-63
2021/03/13 08:15:40;;;;;;;6.03;2.83;;;;;;;6.54;72.69;97862.34;5016170;28;20516;-63
2021/03/13 08:18:38;;;;;;;6.57;2.53;;;;;;;6.53;72.51;97847.75;4998592;28;20030;-63
2021/03/13 08:21:19;;;;;;;6.28;3.00;;;;;;;6.54;72.59;97870.06;5016281;28;20042;-62
2021/03/13 08:23:51;;;;;;;8.93;3.25;;;;;;;6.54;72.86;97857.19;5014737;28;20397;-62
2021/03/13 08:26:35;;;;;;;11.40;2.63;;;;;;;6.54;72.16;97870.06;5016407;28;20081;-62
2021/03/13 08:29:05;;;;;;;11.45;3.05;;;;;;;6.52;72.04;97872.66;5016096;28;20401;-63
2021/03/13 08:31:33;;;;;;;7.32;2.15;;;;;;;6.51;72.55;97873.50;5015845;28;20034;-62
2021/03/13 08:34:06;;;;;;;5.78;2.85;;;;;;;6.52;72.19;97869.19;5016017;28;20056;-62
2021/03/13 08:36:49;;;;;;;11.52;3.25;;;;;;;6.54;72.75;97886.34;5015812;28;20495;-62
2021/03/13 08:39:23;;;;;;;11.32;3.17;;;;;;;6.50;72.64;97871.78;4998536;28;20038;-62
2021/03/13 08:41:52;;;;;;;9.77;3.92;;;;;;;6.52;72.13;97880.38;5014557;28;20112;-62
2021/03/13 08:44:21;;;;;;;12.93;3.38;;;;;;;6.51;72.63;97893.22;4998460;28;20030;-62
2021/03/13 08:47:05;;;;;;;6.70;3.13;;;;;;;6.52;72.57;97889.78;5015760;28;20038;-62
2021/03/13 08:49:31;;;;;;;7.82;3.28;;;;;;;6.51;72.37;97882.94;4998197;28;20042;-62
2021/03/13 08:52:04;;;;;;;13.10;3.42;;;;;;;6.50;72.41;97884.66;5014775;28;20038;-62
2021/03/13 08:54:47;;;;;;;13.88;3.60;;;;;;;6.49;72.54;97872.66;5015709;28;20493;-62
2021/03/13 08:57:16;;;;;;;16.23;3.75;;;;;;;6.48;72.85;97895.78;4997708;28;20052;-62
2021/03/13 08:59:59;;;;;;;10.77;2.83;;;;;;;6.47;72.52;97876.94;5015219;28;20457;-63
2021/03/13 09:02:36;;;;;;;10.38;3.47;;;;;;;6.48;72.20;97888.06;5014475;28;20038;-62
2021/03/13 09:05:11;;;;;;;13.82;3.63;;;;;;;6.47;72.05;97889.81;5014762;28;20037;-62
2021/03/13 09:07:38;;;;;;;9.00;3.72;;;;;;;6.48;72.68;97880.34;5014472;28;20125;-62
2021/03/13 09:10:06;;;;;;;15.75;3.20;;;;;;;6.48;72.16;97888.06;5013903;28;20428;-62
2021/03/13 09:12:37;;;;;;;10.05;3.03;;;;;;;6.48;72.55;97870.06;5014920;28;20520;-63
2021/03/13 09:15:09;;;;;;;10.05;3.22;;;;;;;6.48;72.32;97888.06;5015261;28;20041;-62
2021/03/13 09:17:35;;;;;;;9.95;2.55;;;;;;;6.49;72.54;97875.22;5015755;28;20041;-62
2021/03/13 09:20:05;;;;;;;9.43;2.95;;;;;;;6.48;72.18;97891.53;5015340;28;20034;-62
2021/03/13 09:22:31;;;;;;;9.88;3.33;;;;;;;6.49;72.19;97893.25;5015373;28;20096;-62
2021/03/13 09:25:04;;;;;;;11.52;4.00;;;;;;;6.49;71.97;97893.25;5014700;28;20497;-62
2021/03/13 09:27:32;;;;;;;14.60;2.97;;;;;;;6.50;72.41;97884.66;5013601;28;20512;-62
2021/03/13 09:29:59;;;;;;;10.65;3.10;;;;;;;6.53;72.17;97900.09;4997981;28;20030;-62
2021/03/13 09:32:27;;;;;;;15.25;4.32;;;;;;;6.55;72.42;97876.94;5015227;28;20034;-62
2021/03/13 09:34:58;;;;;;;7.72;2.85;;;;;;;6.59;72.21;97895.78;5013646;28;20041;-62
2021/03/13 09:37:29;;;;;;;8.30;3.60;;;;;;;6.59;72.27;97891.50;5014850;28;20033;-62
2021/03/13 09:40:33;;;;;;;17.23;4.68;;;;;;;6.65;72.45;97893.22;5015168;28;20092;-62
2021/03/13 09:43:01;;;;;;;12.25;3.40;;;;;;;6.69;71.75;97895.75;4964538;28;20145;-62
2021/03/13 09:45:29;;;;;;;11.70;3.58;;;;;;;6.70;71.96;97897.47;5013682;28;20076;-62
2021/03/13 09:47:59;;;;;;;14.25;3.50;;;;;;;6.71;71.84;97903.47;5013427;28;20088;-62
2021/03/13 09:50:32;;;;;;;11.20;3.25;;;;;;;6.71;72.59;97900.91;5013609;28;20053;-62
2021/03/13 09:53:01;;;;;;;8.50;3.13;;;;;;;6.72;72.08;97900.03;5013365;28;20379;-62
2021/03/13 09:55:30;;;;;;;8.35;2.67;;;;;;;6.73;72.21;97895.75;5013370;28;20048;-62
2021/03/13 09:58:01;;;;;;;15.20;3.67;;;;;;;6.73;72.20;97924.06;5013387;28;20128;-62
2021/03/13 10:00:32;;;;;;;11.35;3.25;;;;;;;6.69;72.17;97894.91;5014567;28;20042;-62
2021/03/13 10:03:02;;;;;;;9.82;3.78;;;;;;;6.69;72.12;97923.25;5014841;28;20145;-62
2021/03/13 10:05:32;;;;;;;16.73;4.18;;;;;;;6.68;71.76;97934.38;4997634;28;20034;-62
2021/03/13 10:08:05;;;;;;;15.52;3.75;;;;;;;6.66;71.87;97931.81;5014907;28;20073;-62
2021/03/13 10:10:43;;;;;;;12.23;3.40;;;;;;;6.67;71.75;97928.38;5013522;28;20033;-62
2021/03/13 10:13:14;;;;;;;17.70;3.75;;;;;;;6.69;71.83;97897.50;5012984;28;20041;-62
2021/03/13 10:15:45;;;;;;;11.68;3.40;;;;;;;6.71;71.77;97898.31;4996621;28;20038;-62
2021/03/13 10:18:15;;;;;;;9.75;3.60;;;;;;;6.72;72.07;97910.34;4997210;28;20500;-62
2021/03/13 10:20:47;;;;;;;17.48;3.45;;;;;;;6.74;71.79;97906.03;5013825;28;20136;-62
2021/03/13 10:23:20;;;;;;;15.40;4.72;;;;;;;6.75;71.79;97905.19;5013137;28;20046;-62
2021/03/13 10:26:08;;;;;;;14.57;4.63;;;;;;;6.77;71.43;97894.91;5012714;28;20116;-62
2021/03/13 10:28:39;;;;;;;14.00;3.88;;;;;;;6.79;71.46;97911.16;5013011;28;20042;-62
2021/03/13 10:31:13;;;;;;;15.05;3.90;;;;;;;6.79;71.65;97914.63;5012808;28;20517;-62
2021/03/13 10:33:41;;;;;;;11.13;3.80;;;;;;;6.80;71.85;97903.47;5014267;28;20091;-62
2021/03/13 10:36:07;;;;;;;19.77;5.32;;;;;;;6.82;71.83;97893.13;5013997;28;20042;-62
2021/03/13 10:38:46;;;;;;;16.75;4.35;;;;;;;6.84;71.81;97894.00;5013065;28;20072;-62
2021/03/13 10:41:14;;;;;;;19.02;4.32;;;;;;;6.86;71.82;97900.00;5013567;28;20092;-62
2021/03/13 10:43:43;;;;;;;18.77;4.10;;;;;;;6.89;71.74;97881.97;5012689;28;20045;-62
2021/03/13 10:46:13;;;;;;;17.73;4.63;;;;;;;6.89;71.71;97900.00;5013904;28;20044;-62
2021/03/13 10:48:50;;;;;;;15.15;4.95;;;;;;;6.88;71.66;97893.13;5013843;28;20040;-62
2021/03/13 10:51:30;;;;;;;20.95;5.93;;;;;;;6.88;71.87;97906.00;4996208;28;20105;-61
2021/03/13 10:54:03;;;;;;;17.25;4.32;;;;;;;6.87;71.80;97904.28;5012442;28;20061;-62
2021/03/13 10:56:41;;;;;;;25.20;4.65;;;;;;;6.85;71.69;97909.44;4996442;28;20038;-62
2021/03/13 10:59:07;;;;;;;18.65;5.05;;;;;;;6.85;71.77;97929.19;5013694;28;20034;-62
2021/03/13 11:01:32;;;;;;;14.70;3.80;;;;;;;6.83;71.43;97903.47;4995894;28;20044;-62
2021/03/13 11:03:58;;;;;;;14.68;3.67;;;;;;;6.84;71.41;97896.56;5012585;28;20374;-62
2021/03/13 11:06:31;;;;;;;10.35;3.25;;;;;;;6.84;71.31;97894.00;5012469;28;20045;-62
2021/03/13 11:08:59;;;;;;;23.55;4.40;;;;;;;6.85;71.85;97893.13;4995904;28;20072;-61
2021/03/13 11:11:28;;;;;;;19.17;5.25;;;;;;;6.86;71.45;97894.84;4995838;28;20096;-62
2021/03/13 11:13:56;;;;;;;19.10;5.28;;;;;;;6.85;71.48;97893.97;5013366;28;20041;-62
2021/03/13 11:16:23;;;;;;;13.85;3.97;;;;;;;6.87;71.38;97914.59;5013525;28;20093;-62
2021/03/13 11:18:55;;;;;;;14.23;5.30;;;;;;;6.88;71.41;97881.97;5012346;28;20038;-62
2021/03/13 11:21:26;;;;;;;17.42;4.85;;;;;;;6.90;71.45;97904.28;5013213;28;20379;-62
2021/03/13 11:23:53;;;;;;;14.98;4.07;;;;;;;6.92;71.15;97894.84;4995835;28;20498;-62
2021/03/13 11:26:21;;;;;;;16.98;4.38;;;;;;;6.96;71.09;97888.78;5012864;28;20080;-62
2021/03/13 11:28:47;;;;;;;15.85;4.75;;;;;;;6.98;71.31;97883.66;4995832;28;20555;-62
2021/03/13 11:31:18;;;;;;;20.63;4.85;;;;;;;7.02;71.05;97890.47;5013464;28;20042;-62
2021/03/13 11:33:46;;;;;;;17.88;4.15;;;;;;;7.04;71.28;97870.72;4995573;28;20137;-62
2021/03/13 11:36:17;;;;;;;16.95;4.40;;;;;;;7.07;71.47;97869.88;4995659;28;20049;-62
2021/03/13 11:38:51;;;;;;;14.95;3.78;;;;;;;7.08;71.12;97894.78;5012962;28;20034;-62
2021/03/13 11:41:21;;;;;;;17.55;4.68;;;;;;;7.08;71.11;97869.88;5013614;28;20037;-62
2021/03/13 11:43:50;;;;;;;19.20;4.65;;;;;;;7.10;71.17;97847.53;5013310;28;20117;-62
2021/03/13 11:46:18;;;;;;;14.55;4.60;;;;;;;7.12;71.12;97875.84;4995400;28;20608;-62
2021/03/13 11:48:46;;;;;;;13.02;3.63;;;;;;;7.13;70.93;97898.16;5012050;28;20065;-62
2021/03/13 11:51:14;;;;;;;17.42;4.35;;;;;;;7.14;71.00;97877.56;5013297;28;20042;-62
2021/03/13 11:53:42;;;;;;;19.83;5.65;;;;;;;7.16;70.99;97888.69;5011808;28;20133;-62
2021/03/13 11:56:09;;;;;;;16.58;3.90;;;;;;;7.17;71.17;97902.47;5013216;28;20477;-62
2021/03/13 11:58:37;;;;;;;20.50;4.97;;;;;;;7.19;71.02;97928.19;5012448;28;20034;-62
2021/03/13 12:01:05;;;;;;;18.98;4.55;;;;;;;7.20;70.70;97907.59;5013183;28;20121;-62